createdAt,value
2018-12-20T00:00:43.184Z,9.40
2018-12-20T00:03:12.178Z,9.43
2018-12-20T00:05:41.085Z,10.10
2018-12-20T00:08:09.882Z,10.10
2018-12-20T00:10:38.719Z,9.73
2018-12-20T00:13:07.507Z,10.20
2018-12-20T00:15:36.306Z,9.30
2018-12-20T00:18:05.140Z,9.80
2018-12-20T00:20:33.972Z,9.85
2018-12-20T00:23:02.786Z,9.40
2018-12-20T00:25:31.679Z,9.75
2018-12-20T00:28:00.642Z,9.63
2018-12-20T00:30:29.522Z,9.93
2018-12-20T00:32:58.407Z,9.80
2018-12-20T00:35:27.394Z,9.27
2018-12-20T00:37:56.309Z,8.50
2018-12-20T00:40:25.123Z,8.70
2018-12-20T00:42:53.922Z,9.10
2018-12-20T00:45:22.802Z,8.48
2018-12-20T00:47:51.629Z,9.75
2018-12-20T00:50:20.375Z,9.00
2018-12-20T00:52:49.175Z,8.60
2018-12-20T00:55:17.987Z,7.55
2018-12-20T00:57:47.080Z,8.60
2018-12-20T01:00:18.163Z,7.42
2018-12-20T01:02:47.095Z,11.00
2018-12-20T01:05:16.067Z,13.58
2018-12-20T01:07:45.082Z,8.18
2018-12-20T01:10:13.871Z,8.60
2018-12-20T01:12:42.636Z,8.15
2018-12-20T01:15:11.502Z,7.90
2018-12-20T01:17:40.336Z,8.40
2018-12-20T01:20:09.868Z,8.65
2018-12-20T01:22:38.814Z,7.70
2018-12-20T01:25:07.786Z,7.58
2018-12-20T01:27:36.701Z,7.60
2018-12-20T01:30:06.710Z,8.23
2018-12-20T01:32:35.492Z,8.05
2018-12-20T01:35:04.690Z,8.08
2018-12-20T01:37:33.556Z,8.00
2018-12-20T01:40:02.597Z,8.33
2018-12-20T01:42:31.438Z,8.20
2018-12-20T01:45:00.260Z,7.47
2018-12-20T01:47:29.261Z,7.85
2018-12-20T01:49:58.116Z,7.80
2018-12-20T01:52:26.927Z,7.83
2018-12-20T01:54:55.836Z,7.70
2018-12-20T01:57:24.743Z,8.13
2018-12-20T01:59:53.659Z,8.17
2018-12-20T02:02:22.634Z,7.50
2018-12-20T02:04:51.582Z,7.47
2018-12-20T02:07:20.398Z,6.92
2018-12-20T02:09:49.275Z,8.05
2018-12-20T02:12:18.186Z,8.13
2018-12-20T02:14:47.113Z,7.75
2018-12-20T02:17:16.000Z,7.78
2018-12-20T02:19:46.003Z,8.03
2018-12-20T02:22:14.797Z,7.07
2018-12-20T02:24:43.877Z,7.30
2018-12-20T02:27:12.910Z,6.95
2018-12-20T02:29:41.799Z,7.47
2018-12-20T02:32:10.732Z,7.10
2018-12-20T02:34:39.622Z,6.50
2018-12-20T02:37:08.418Z,6.90
2018-12-20T02:39:37.252Z,6.55
2018-12-20T02:42:06.094Z,6.67
2018-12-20T02:44:35.160Z,6.92
2018-12-20T02:47:04.034Z,6.72
2018-12-20T02:49:32.960Z,6.53
2018-12-20T02:52:02.081Z,7.47
2018-12-20T02:54:30.934Z,6.83
2018-12-20T02:56:59.838Z,6.28
2018-12-20T02:59:28.753Z,6.78
2018-12-20T03:01:57.520Z,6.85
2018-12-20T03:04:26.358Z,6.85
2018-12-20T03:06:55.119Z,6.57
2018-12-20T03:09:24.928Z,6.28
2018-12-20T03:11:53.758Z,6.30
2018-12-20T03:14:22.519Z,5.92
2018-12-20T03:16:51.651Z,6.65
2018-12-20T03:19:20.557Z,6.97
2018-12-20T03:21:49.394Z,6.50
2018-12-20T03:24:18.304Z,6.78
2018-12-20T03:26:47.236Z,5.87
2018-12-20T03:29:16.034Z,5.80
2018-12-20T03:31:44.874Z,5.60
2018-12-20T03:34:13.721Z,6.10
2018-12-20T03:36:42.641Z,6.10
2018-12-20T03:39:11.612Z,6.42
2018-12-20T03:41:40.413Z,6.42
2018-12-20T03:44:09.433Z,6.33
2018-12-20T03:46:38.291Z,6.10
2018-12-20T03:49:07.130Z,6.33
2018-12-20T03:51:37.161Z,6.03
2018-12-20T03:54:06.048Z,6.15
2018-12-20T03:56:35.115Z,5.93
2018-12-20T03:59:04.182Z,6.30
2018-12-20T04:01:33.030Z,6.80
2018-12-20T04:04:01.953Z,5.70
2018-12-20T04:06:30.949Z,5.75
2018-12-20T04:08:59.843Z,5.45
2018-12-20T04:11:28.846Z,5.90
2018-12-20T04:13:57.622Z,5.70
2018-12-20T04:16:26.553Z,5.83
2018-12-20T04:18:55.635Z,5.72
2018-12-20T04:21:24.721Z,5.97
2018-12-20T04:23:53.725Z,6.10
2018-12-20T04:26:22.707Z,6.42
2018-12-20T04:28:51.499Z,6.03
2018-12-20T04:31:20.356Z,5.73
2018-12-20T04:33:49.202Z,5.90
2018-12-20T04:36:18.003Z,6.03
2018-12-20T04:38:47.111Z,5.70
2018-12-20T04:41:16.234Z,5.72
2018-12-20T04:43:45.044Z,5.50
2018-12-20T04:46:14.085Z,6.37
2018-12-20T04:48:43.069Z,6.00
2018-12-20T04:51:11.990Z,6.47
2018-12-20T04:53:40.758Z,6.50
2018-12-20T04:56:09.714Z,7.03
2018-12-20T04:58:38.726Z,6.40
2018-12-20T05:01:07.895Z,6.70
2018-12-20T05:03:36.820Z,6.70
2018-12-20T05:06:05.626Z,6.85
2018-12-20T05:08:34.447Z,6.25
2018-12-20T05:11:03.258Z,6.40
2018-12-20T05:13:32.227Z,6.20
2018-12-20T05:16:01.351Z,5.70
2018-12-20T05:18:30.523Z,5.17
2018-12-20T05:20:59.446Z,5.20
2018-12-20T05:23:28.273Z,6.00
2018-12-20T05:25:57.156Z,6.20
2018-12-20T05:28:26.169Z,6.85
2018-12-20T05:30:55.327Z,7.47
2018-12-20T05:33:24.439Z,7.00
2018-12-20T05:35:53.392Z,6.90
2018-12-20T05:38:22.349Z,6.22
2018-12-20T05:40:51.266Z,6.45
2018-12-20T05:43:20.122Z,5.90
2018-12-20T05:45:49.146Z,6.17
2018-12-20T05:48:18.161Z,6.27
2018-12-20T05:50:47.161Z,6.50
2018-12-20T05:53:15.983Z,6.20
2018-12-20T05:55:44.877Z,6.30
2018-12-20T05:58:13.792Z,6.55
2018-12-20T06:00:42.937Z,6.70
2018-12-20T06:03:12.109Z,6.60
2018-12-20T06:05:41.002Z,5.83
2018-12-20T06:08:09.827Z,5.70
2018-12-20T06:10:38.603Z,6.03
2018-12-20T06:13:07.594Z,6.05
2018-12-20T06:15:36.634Z,6.17
2018-12-20T06:18:05.647Z,6.37
2018-12-20T06:20:34.495Z,6.00
2018-12-20T06:23:03.255Z,5.80
2018-12-20T06:25:32.108Z,5.72
2018-12-20T06:28:00.861Z,5.80
2018-12-20T06:30:29.649Z,5.90
2018-12-20T06:32:58.395Z,5.65
2018-12-20T06:35:27.180Z,5.73
2018-12-20T06:37:55.954Z,6.17
2018-12-20T06:40:25.015Z,6.00
2018-12-20T06:42:53.811Z,6.03
2018-12-20T06:45:22.631Z,5.65
2018-12-20T06:47:51.474Z,5.42
2018-12-20T06:50:20.239Z,5.70
2018-12-20T06:52:48.998Z,5.67
2018-12-20T06:55:17.774Z,6.08
2018-12-20T06:57:46.526Z,5.47
2018-12-20T07:00:15.274Z,5.10
2018-12-20T07:02:44.046Z,5.10
2018-12-20T07:05:14.632Z,5.00
2018-12-20T07:07:43.467Z,5.60
2018-12-20T07:10:12.234Z,5.40
2018-12-20T07:12:41.134Z,5.85
2018-12-20T07:15:10.042Z,5.47
2018-12-20T07:17:38.813Z,5.10
2018-12-20T07:20:07.702Z,5.47
2018-12-20T07:22:36.459Z,5.17
2018-12-20T07:25:05.689Z,5.42
2018-12-20T07:27:36.302Z,4.65
2018-12-20T07:30:06.879Z,3.92
2018-12-20T07:32:35.724Z,4.12
2018-12-20T07:35:05.490Z,4.40
2018-12-20T07:37:34.365Z,4.53
2018-12-20T07:40:03.931Z,4.33
2018-12-20T07:42:32.772Z,3.90
2018-12-20T07:45:01.546Z,3.60
2018-12-20T07:47:30.510Z,3.47
2018-12-20T07:49:59.278Z,3.02
2018-12-20T07:52:28.138Z,3.00
2018-12-20T07:54:56.914Z,2.70
2018-12-20T07:57:25.667Z,2.58
2018-12-20T07:59:54.707Z,2.35
2018-12-20T08:02:23.611Z,2.20
2018-12-20T08:04:52.409Z,2.02
2018-12-20T08:07:21.243Z,1.90
2018-12-20T08:09:50.059Z,1.90
2018-12-20T08:12:18.809Z,2.30
2018-12-20T08:14:47.659Z,2.20
2018-12-20T08:17:16.447Z,2.05
2018-12-20T08:19:45.203Z,1.95
2018-12-20T08:22:14.141Z,2.00
2018-12-20T08:24:42.934Z,2.50
2018-12-20T08:27:11.719Z,2.00
2018-12-20T08:29:40.982Z,2.25
2018-12-20T08:32:09.749Z,2.40
2018-12-20T08:34:38.525Z,2.20
2018-12-20T08:37:07.286Z,2.15
2018-12-20T08:39:36.059Z,2.10
2018-12-20T08:42:04.833Z,1.98
2018-12-20T08:44:33.706Z,2.20
2018-12-20T08:47:02.636Z,2.10
2018-12-20T08:49:31.470Z,2.50
2018-12-20T08:52:00.246Z,2.20
2018-12-20T08:54:29.066Z,2.42
2018-12-20T08:56:57.954Z,2.30
2018-12-20T08:59:26.715Z,2.47
2018-12-20T09:01:55.605Z,2.08
2018-12-20T09:04:24.367Z,2.33
2018-12-20T09:06:53.142Z,2.70
2018-12-20T09:09:21.945Z,2.85
2018-12-20T09:11:50.728Z,2.80
2018-12-20T09:14:19.471Z,3.22
2018-12-20T09:16:48.247Z,2.85
2018-12-20T09:19:17.041Z,3.05
2018-12-20T09:21:45.930Z,3.12
2018-12-20T09:24:14.697Z,3.37
2018-12-20T09:26:43.491Z,3.00
2018-12-20T09:29:12.247Z,3.55
2018-12-20T09:31:41.050Z,3.10
2018-12-20T09:34:09.802Z,3.33
2018-12-20T09:36:38.581Z,3.30
2018-12-20T09:39:08.743Z,3.30
2018-12-20T09:41:37.524Z,3.10
2018-12-20T09:44:06.374Z,3.10
2018-12-20T09:46:35.234Z,2.90
2018-12-20T09:49:04.098Z,3.20
2018-12-20T09:51:32.948Z,2.83
2018-12-20T09:54:01.702Z,2.90
2018-12-20T09:56:30.634Z,2.80
2018-12-20T09:58:59.475Z,2.58
2018-12-20T10:01:28.292Z,2.42
2018-12-20T10:03:57.039Z,2.60
2018-12-20T10:06:25.811Z,2.73
2018-12-20T10:08:54.574Z,2.50
2018-12-20T10:11:23.422Z,2.55
2018-12-20T10:13:52.282Z,2.75
2018-12-20T10:16:21.131Z,2.70
2018-12-20T10:18:49.928Z,2.70
2018-12-20T10:21:18.816Z,2.70
2018-12-20T10:23:47.610Z,2.70
2018-12-20T10:26:16.456Z,2.45
2018-12-20T10:28:45.370Z,2.90
2018-12-20T10:31:14.190Z,2.50
2018-12-20T10:33:42.995Z,3.25
2018-12-20T10:36:11.806Z,2.90
2018-12-20T10:38:41.763Z,2.77
2018-12-20T10:41:10.742Z,2.70
2018-12-20T10:43:39.703Z,2.27
2018-12-20T10:46:08.491Z,2.62
2018-12-20T10:48:37.290Z,2.40
2018-12-20T10:51:06.098Z,2.20
2018-12-20T10:53:34.989Z,1.85
2018-12-20T10:56:03.886Z,2.00
2018-12-20T10:58:32.841Z,1.72
2018-12-20T11:01:06.966Z,1.60
2018-12-20T11:03:41.198Z,1.75
2018-12-20T11:06:15.537Z,1.30
2018-12-20T11:08:49.941Z,1.50
2018-12-20T11:11:20.922Z,1.30
2018-12-20T11:13:50.171Z,1.45
2018-12-20T11:16:19.063Z,1.60
2018-12-20T11:18:47.845Z,1.40
2018-12-20T11:21:17.108Z,1.40
2018-12-20T11:23:46.040Z,1.60
2018-12-20T11:26:14.823Z,1.40
2018-12-20T11:29:16.284Z,1.65
2018-12-20T11:31:45.110Z,1.57
2018-12-20T11:34:13.920Z,1.60
2018-12-20T11:36:42.874Z,1.40
2018-12-20T11:39:11.790Z,1.55
2018-12-20T11:41:40.604Z,1.50
2018-12-20T11:44:09.407Z,1.40
2018-12-20T11:46:38.262Z,1.57
2018-12-20T11:49:07.129Z,1.32
2018-12-20T11:51:36.069Z,1.20
2018-12-20T11:54:04.947Z,1.27
2018-12-20T11:56:33.819Z,1.50
2018-12-20T11:59:02.633Z,1.80
2018-12-20T12:01:31.452Z,1.65
2018-12-20T12:04:00.310Z,1.90
2018-12-20T12:06:29.158Z,1.60
2018-12-20T12:08:57.984Z,1.55
2018-12-20T12:11:26.895Z,1.65
2018-12-20T12:13:55.741Z,1.77
2018-12-20T12:16:25.525Z,1.80
2018-12-20T12:18:54.343Z,1.65
2018-12-20T12:21:23.256Z,1.50
2018-12-20T12:23:52.136Z,1.77
2018-12-20T12:26:20.926Z,1.57
2018-12-20T12:28:49.759Z,1.43
2018-12-20T12:31:18.585Z,1.80
2018-12-20T12:33:47.650Z,1.80
2018-12-20T12:36:16.554Z,1.30
2018-12-20T12:38:45.446Z,1.50
2018-12-20T12:41:14.307Z,1.80
2018-12-20T12:43:43.090Z,1.67
2018-12-20T12:46:11.906Z,1.70
2018-12-20T12:48:40.724Z,1.70
2018-12-20T12:51:09.558Z,1.77
2018-12-20T12:53:38.379Z,1.60
2018-12-20T12:56:07.287Z,1.90
2018-12-20T12:58:36.209Z,1.90
2018-12-20T13:01:05.150Z,2.00
2018-12-20T13:03:33.978Z,1.92
2018-12-20T13:06:03.720Z,1.70
2018-12-20T13:08:32.546Z,1.85
2018-12-20T13:11:01.372Z,2.20
2018-12-20T13:13:30.194Z,1.60
2018-12-20T13:15:58.996Z,2.13
2018-12-20T13:18:27.787Z,2.10
2018-12-20T13:20:56.646Z,1.82
2018-12-20T13:23:25.744Z,2.00
2018-12-20T13:25:54.659Z,2.30
2018-12-20T13:28:23.538Z,2.33
2018-12-20T13:30:58.821Z,2.00
2018-12-20T13:33:28.951Z,1.85
2018-12-20T13:35:57.894Z,2.10
2018-12-20T13:38:26.730Z,2.13
2018-12-20T13:40:55.550Z,1.80
2018-12-20T13:43:24.590Z,2.40
2018-12-20T13:45:53.482Z,2.40
2018-12-20T13:48:22.636Z,2.35
2018-12-20T13:50:51.583Z,2.30
2018-12-20T13:53:20.406Z,2.40
2018-12-20T13:55:49.261Z,2.33
2018-12-20T13:58:18.098Z,2.67
2018-12-20T14:00:46.953Z,2.40
2018-12-20T14:03:15.764Z,2.15
2018-12-20T14:05:44.756Z,2.17
2018-12-20T14:08:13.556Z,2.63
2018-12-20T14:10:42.386Z,2.05
2018-12-20T14:13:11.222Z,2.37
2018-12-20T14:15:40.105Z,3.08
2018-12-20T14:18:08.976Z,2.20
2018-12-20T14:20:37.832Z,2.33
2018-12-20T14:23:06.661Z,2.22
2018-12-20T14:25:35.563Z,2.25
2018-12-20T14:28:04.515Z,2.30
2018-12-20T14:30:33.384Z,2.70
2018-12-20T14:33:03.227Z,2.47
2018-12-20T14:35:32.230Z,2.70
2018-12-20T14:38:01.097Z,3.15
2018-12-20T14:40:29.930Z,3.08
2018-12-20T14:42:58.734Z,2.80
2018-12-20T14:45:27.574Z,2.60
2018-12-20T14:47:56.368Z,2.60
2018-12-20T14:50:25.165Z,2.60
2018-12-20T14:52:56.018Z,2.70
2018-12-20T14:55:24.848Z,2.80
2018-12-20T14:57:53.706Z,2.62
2018-12-20T15:00:22.646Z,2.45
2018-12-20T15:02:53.357Z,3.20
2018-12-20T15:05:22.170Z,2.87
2018-12-20T15:07:50.975Z,2.87
2018-12-20T15:10:20.356Z,2.52
2018-12-20T15:12:49.202Z,2.50
2018-12-20T15:15:18.068Z,2.53
2018-12-20T15:17:46.900Z,2.80
2018-12-20T15:20:15.718Z,2.20
2018-12-20T15:22:44.629Z,2.27
2018-12-20T15:25:13.414Z,2.40
2018-12-20T15:27:42.221Z,2.60
2018-12-20T15:30:11.503Z,2.52
2018-12-20T15:32:40.315Z,2.43
2018-12-20T15:35:09.310Z,2.65
2018-12-20T15:37:38.187Z,2.75
2018-12-20T15:40:08.651Z,3.05
2018-12-20T15:42:37.553Z,2.70
2018-12-20T15:45:07.763Z,2.37
2018-12-20T15:47:36.734Z,2.67
2018-12-20T15:50:07.008Z,2.50
2018-12-20T15:52:35.856Z,2.80
2018-12-20T15:55:05.657Z,2.47
2018-12-20T15:57:34.642Z,2.50
2018-12-20T16:00:03.762Z,2.90
2018-12-20T16:02:33.022Z,2.77
2018-12-20T16:05:01.963Z,2.72
2018-12-20T16:07:30.742Z,2.70
2018-12-20T16:09:59.560Z,2.62
2018-12-20T16:12:28.503Z,2.25
2018-12-20T16:14:57.296Z,2.45
2018-12-20T16:17:26.207Z,2.40
2018-12-20T16:19:55.049Z,2.17
2018-12-20T16:22:23.963Z,2.27
2018-12-20T16:24:52.798Z,2.30
2018-12-20T16:27:21.634Z,2.30
2018-12-20T16:29:50.463Z,2.37
2018-12-20T16:32:19.267Z,2.30
2018-12-20T16:34:48.089Z,2.35
2018-12-20T16:37:17.295Z,2.35
2018-12-20T16:39:46.128Z,2.65
2018-12-20T16:42:15.070Z,2.77
2018-12-20T16:44:43.980Z,2.90
2018-12-20T16:47:12.918Z,2.77
2018-12-20T16:49:41.723Z,2.83
2018-12-20T16:52:10.638Z,2.65
2018-12-20T16:54:40.358Z,2.83
2018-12-20T16:57:09.216Z,2.67
2018-12-20T16:59:38.289Z,3.02
2018-12-20T17:02:07.191Z,2.72
2018-12-20T17:04:36.049Z,3.00
2018-12-20T17:07:05.881Z,3.12
2018-12-20T17:09:34.979Z,3.30
2018-12-20T17:12:03.951Z,3.58
2018-12-20T17:14:32.777Z,3.37
2018-12-20T17:17:01.601Z,3.17
2018-12-20T17:19:30.373Z,3.20
2018-12-20T17:21:59.199Z,3.58
2018-12-20T17:24:28.026Z,3.60
2018-12-20T17:26:56.953Z,3.47
2018-12-20T17:29:25.855Z,3.42
2018-12-20T17:31:54.683Z,3.42
2018-12-20T17:34:23.586Z,3.25
2018-12-20T17:36:52.390Z,3.50
2018-12-20T17:39:21.234Z,3.50
2018-12-20T17:41:50.107Z,3.20
2018-12-20T17:44:18.976Z,3.40
2018-12-20T17:46:47.834Z,3.30
2018-12-20T17:49:16.638Z,3.30
2018-12-20T17:51:45.493Z,3.67
2018-12-20T17:54:14.329Z,4.53
2018-12-20T17:56:43.246Z,4.30
2018-12-20T17:59:12.165Z,3.60
2018-12-20T18:01:41.059Z,3.60
2018-12-20T18:04:09.969Z,4.17
2018-12-20T18:06:38.901Z,4.00
2018-12-20T18:09:08.878Z,4.40
2018-12-20T18:11:37.802Z,4.37
2018-12-20T18:14:06.632Z,4.35
2018-12-20T18:16:35.546Z,3.90
2018-12-20T18:19:04.422Z,4.25
2018-12-20T18:21:33.323Z,4.17
2018-12-20T18:24:02.214Z,4.72
2018-12-20T18:26:31.051Z,4.10
2018-12-20T18:28:59.828Z,4.80
2018-12-20T18:31:28.650Z,4.43
2018-12-20T18:33:57.482Z,3.50
2018-12-20T18:36:27.318Z,4.30
2018-12-20T18:38:56.364Z,3.37
2018-12-20T18:41:25.207Z,3.67
2018-12-20T18:43:53.994Z,3.83
2018-12-20T18:46:22.823Z,4.15
2018-12-20T18:48:51.799Z,4.05
2018-12-20T18:51:20.630Z,3.87
2018-12-20T18:53:49.494Z,3.95
2018-12-20T18:56:18.348Z,3.50
2018-12-20T18:58:47.190Z,3.73
2018-12-20T19:01:15.978Z,4.00
2018-12-20T19:03:44.815Z,3.70
2018-12-20T19:06:13.692Z,3.40
2018-12-20T19:08:43.522Z,3.80
2018-12-20T19:11:12.332Z,3.98
2018-12-20T19:13:42.071Z,3.30
2018-12-20T19:16:10.892Z,3.25
2018-12-20T19:18:39.742Z,3.10
2018-12-20T19:21:08.724Z,3.33
2018-12-20T19:23:37.489Z,2.87
2018-12-20T19:26:06.409Z,3.20
2018-12-20T19:28:35.313Z,3.60
2018-12-20T19:31:04.212Z,3.42
2018-12-20T19:33:33.079Z,3.57
2018-12-20T19:36:01.852Z,3.10
2018-12-20T19:38:30.761Z,3.47
2018-12-20T19:40:59.617Z,3.27
2018-12-20T19:43:28.491Z,3.20
2018-12-20T19:45:57.333Z,3.30
2018-12-20T19:48:26.150Z,3.50
2018-12-20T19:50:55.451Z,3.85
2018-12-20T19:53:24.269Z,3.40
2018-12-20T19:55:53.094Z,3.35
2018-12-20T19:58:21.899Z,3.12
2018-12-20T20:00:50.708Z,3.15
2018-12-20T20:03:19.589Z,3.57
2018-12-20T20:05:48.450Z,3.73
2018-12-20T20:08:17.280Z,3.50
2018-12-20T20:10:46.919Z,3.52
2018-12-20T20:13:19.432Z,3.40
2018-12-20T20:15:46.912Z,3.52
2018-12-20T20:18:16.006Z,3.50
2018-12-20T20:20:46.257Z,3.50
2018-12-20T20:23:15.437Z,3.45
2018-12-20T20:25:44.561Z,3.40
2018-12-20T20:28:13.386Z,3.22
2018-12-20T20:30:42.190Z,3.58
2018-12-20T20:33:11.266Z,3.15
2018-12-20T20:35:40.262Z,3.60
2018-12-20T20:38:09.173Z,3.50
2018-12-20T20:40:38.475Z,3.22
2018-12-20T20:43:07.303Z,3.83
2018-12-20T20:45:36.702Z,3.83
2018-12-20T20:48:05.532Z,3.40
2018-12-20T20:50:34.775Z,3.70
2018-12-20T20:53:03.678Z,3.63
2018-12-20T20:55:32.838Z,3.80
2018-12-20T20:58:01.689Z,4.10
2018-12-20T21:00:30.814Z,4.10
2018-12-20T21:02:59.680Z,4.67
2018-12-20T21:05:28.844Z,4.33
2018-12-20T21:07:57.623Z,4.67
2018-12-20T21:10:26.533Z,4.58
2018-12-20T21:12:55.684Z,4.33
2018-12-20T21:15:24.462Z,4.30
2018-12-20T21:17:53.413Z,4.03
2018-12-20T21:20:30.498Z,4.15
2018-12-20T21:22:53.415Z,4.22
2018-12-20T21:25:22.651Z,4.62
2018-12-20T21:27:51.435Z,4.80
2018-12-20T21:30:20.371Z,4.65
2018-12-20T21:32:49.504Z,4.42
2018-12-20T21:35:18.501Z,4.28
2018-12-20T21:37:47.299Z,4.15
2018-12-20T21:40:16.165Z,3.75
2018-12-20T21:42:44.940Z,3.95
2018-12-20T21:45:13.755Z,4.77
2018-12-20T21:47:42.636Z,3.77
2018-12-20T21:50:12.295Z,3.72
2018-12-20T21:52:41.168Z,4.20
2018-12-20T21:55:10.620Z,3.90
2018-12-20T21:57:40.348Z,3.75
2018-12-20T22:00:10.724Z,3.47
2018-12-20T22:02:39.875Z,3.50
2018-12-20T22:05:08.820Z,3.62
2018-12-20T22:07:38.683Z,3.30
2018-12-20T22:10:08.283Z,3.58
2018-12-20T22:12:37.258Z,3.10
2018-12-20T22:15:06.306Z,4.00
2018-12-20T22:17:35.174Z,3.87
2018-12-20T22:20:05.037Z,3.70
2018-12-20T22:22:33.823Z,3.90
2018-12-20T22:25:02.758Z,3.57
2018-12-20T22:27:31.792Z,3.50
2018-12-20T22:30:00.578Z,3.55
2018-12-20T22:32:29.378Z,3.12
2018-12-20T22:34:58.814Z,3.77
2018-12-20T22:37:27.594Z,3.22
2018-12-20T22:39:56.437Z,3.50
2018-12-20T22:42:25.240Z,3.30
2018-12-20T22:44:54.054Z,3.02
2018-12-20T22:47:22.826Z,2.83
2018-12-20T22:49:51.675Z,3.00
2018-12-20T22:52:20.490Z,3.08
2018-12-20T22:54:49.275Z,2.98
2018-12-20T22:57:18.066Z,3.10
2018-12-20T22:59:46.885Z,3.35
2018-12-20T23:02:18.193Z,3.15
2018-12-20T23:04:46.638Z,3.35
2018-12-20T23:07:15.420Z,3.30
2018-12-20T23:09:44.213Z,3.30
2018-12-20T23:12:13.041Z,3.17
2018-12-20T23:14:41.822Z,3.00
2018-12-20T23:17:10.623Z,3.03
2018-12-20T23:19:39.654Z,3.42
2018-12-20T23:22:08.456Z,3.08
2018-12-20T23:24:37.258Z,3.10
2018-12-20T23:27:07.003Z,3.37
2018-12-20T23:29:35.770Z,3.50
2018-12-20T23:32:04.582Z,4.17
2018-12-20T23:34:33.364Z,2.72
2018-12-20T23:37:02.170Z,2.83
2018-12-20T23:39:31.031Z,3.07
2018-12-20T23:41:59.885Z,2.27
2018-12-20T23:44:28.679Z,3.15
2018-12-20T23:46:57.459Z,2.80
2018-12-20T23:49:26.246Z,2.80
2018-12-20T23:51:55.095Z,3.45
2018-12-20T23:54:23.906Z,2.85
2018-12-20T23:56:52.705Z,3.00
2018-12-20T23:59:21.494Z,2.67
